Time;durP1;ratioP1;P1;durP2;ratioP2;P2;SDS_P1;SDS_P2;PMS_P1;PMS_P2;Temp;Humidity;BMP_temperature;BMP_pressure;BME280_temperature;BME280_humidity;BME280_pressure;Samples;Min_cycle;Max_cycle;Signal;HPM_P1;HPM_P2
2023/12/25 08:26:42;;;;;;;3.53;0.80;;;;;;;7.63;72.13;96380.72;2083435;28;20585;-71
2023/12/25 08:27:44;;;;;;;3.75;0.80;;;;;;;7.82;71.20;96376.56;2079709;28;20664;-71
2023/12/25 08:28:47;;;;;;;3.67;0.80;;;;;;;8.13;71.01;96382.34;2075936;28;20270;-76
2023/12/25 08:29:49;;;;;;;2.95;1.00;;;;;;;8.12;70.58;96391.03;2074302;28;20233;-78
2023/12/25 08:30:51;;;;;;;2.05;1.00;;;;;;;7.92;70.97;96379.66;2075063;28;20202;-70
2023/12/25 08:50:08;;;;;;;3.83;1.20;;;;;;;7.78;74.49;96374.97;2099048;27;21275;-69
2023/12/25 08:51:10;;;;;;;2.42;1.08;;;;;;;7.96;73.47;96372.56;2101191;28;20202;-69
2023/12/25 08:52:11;;;;;;;2.72;1.02;;;;;;;8.29;72.87;96375.63;2104214;28;20574;-70
2023/12/25 08:53:12;;;;;;;1.67;1.00;;;;;;;8.45;72.29;96385.41;2098403;28;20218;-70
2023/12/25 08:54:14;;;;;;;1.90;0.93;;;;;;;8.63;71.79;96389.91;2092073;28;20273;-69
2023/12/25 08:55:15;;;;;;;2.45;1.17;;;;;;;8.66;71.83;96384.56;2091413;28;20198;-70
2023/12/25 08:56:26;;;;;;;1.85;1.00;;;;;;;8.73;71.64;96395.56;2091592;28;20205;-70
2023/12/25 08:57:28;;;;;;;3.28;1.30;;;;;;;8.49;72.42;96380.06;2091704;28;20203;-69
2023/12/25 08:58:29;;;;;;;3.15;1.10;;;;;;;8.38;73.26;96395.22;2084768;28;20255;-70
2023/12/25 08:59:31;;;;;;;2.30;0.88;;;;;;;8.22;73.66;96388.94;2079097;28;20637;-72
2023/12/25 09:00:33;;;;;;;1.60;0.80;;;;;;;7.96;74.29;96378.63;2082912;28;20303;-72
2023/12/25 09:01:35;;;;;;;1.83;1.05;;;;;;;8.00;74.52;96401.00;2085376;28;20656;-72
2023/12/25 09:02:37;;;;;;;3.22;1.10;;;;;;;7.88;74.83;96392.81;2082036;28;20251;-71
2023/12/25 09:03:38;;;;;;;2.17;0.95;;;;;;;7.77;75.30;96401.88;2077568;28;20200;-71
2023/12/25 09:29:59;;;;;;;2.13;0.80;;;;;;;7.39;81.24;96430.09;2100711;27;20581;-70
2023/12/25 09:31:01;;;;;;;4.13;0.80;;;;;;;7.41;80.99;96424.84;2094408;28;20252;-70
2023/12/25 09:32:03;;;;;;;2.55;1.00;;;;;;;7.48;81.00;96431.53;2092569;28;20655;-70
2023/12/25 09:33:05;;;;;;;3.40;1.00;;;;;;;7.50;80.70;96414.13;2094862;28;20236;-69
2023/12/25 09:34:06;;;;;;;3.03;0.60;;;;;;;7.48;80.72;96424.56;2081421;28;20224;-70
2023/12/25 09:47:27;;;;;;;2.30;0.80;;;;;;;7.58;81.68;96422.50;2101179;27;20569;-67
2023/12/25 09:48:29;;;;;;;1.30;0.70;;;;;;;7.55;81.49;96409.59;2094254;28;20215;-68
2023/12/25 09:49:35;;;;;;;1.95;0.70;;;;;;;7.70;81.49;96433.34;2083975;28;20211;-68
2023/12/25 09:50:38;;;;;;;1.70;0.80;;;;;;;7.74;81.65;96435.75;2081175;28;20247;-68
2023/12/25 09:51:42;;;;;;;1.60;0.75;;;;;;;7.75;81.32;96442.66;2082821;28;20197;-68
2023/12/25 09:52:44;;;;;;;1.55;0.80;;;;;;;7.78;81.43;96429.56;2082119;28;20441;-68
2023/12/25 09:53:45;;;;;;;2.65;0.70;;;;;;;7.76;81.53;96427.94;2075916;28;20279;-68
2023/12/25 09:54:47;;;;;;;1.98;0.70;;;;;;;7.85;81.59;96432.78;2070451;28;20198;-68
2023/12/25 09:55:50;;;;;;;1.70;0.80;;;;;;;7.91;81.35;96434.28;2070497;28;20870;-71
2023/12/25 10:08:43;;;;;;;5.43;0.80;;;;;;;7.82;83.13;96422.47;2099276;27;20570;-70
2023/12/25 10:09:44;;;;;;;2.38;0.75;;;;;;;7.78;83.14;96413.13;2106708;28;20568;-70
2023/12/25 10:10:46;;;;;;;3.05;0.88;;;;;;;7.80;82.92;96412.16;2097403;28;20191;-70
2023/12/25 10:11:48;;;;;;;2.30;0.70;;;;;;;7.73;82.57;96399.44;2096436;28;20197;-71
2023/12/25 10:12:50;;;;;;;1.30;0.70;;;;;;;7.84;83.13;96413.72;2095322;28;20203;-71
2023/12/25 10:13:51;;;;;;;1.30;0.70;;;;;;;7.85;83.11;96412.00;2098615;28;20227;-70
2023/12/25 10:14:53;;;;;;;2.67;0.85;;;;;;;7.81;83.11;96394.81;2098300;28;20519;-70
2023/12/25 10:15:54;;;;;;;1.20;0.60;;;;;;;7.89;83.00;96407.53;2097782;28;20678;-70
2023/12/25 10:23:56;;;;;;;3.78;1.55;;;;;;;7.79;83.17;96389.66;2083158;28;20928;-70
2023/12/25 10:25:06;;;;;;;14.75;8.30;;;;;;;7.97;82.90;96400.25;2085947;28;20192;-70
2023/12/25 10:26:08;;;;;;;2.80;0.98;;;;;;;7.95;82.65;96379.53;2084546;28;20205;-71
2023/12/25 10:27:10;;;;;;;2.10;0.70;;;;;;;8.19;82.49;96402.91;2083512;28;20201;-70
2023/12/25 10:28:12;;;;;;;3.15;0.80;;;;;;;8.19;82.22;96408.09;2085062;28;20672;-70
2023/12/25 10:29:13;;;;;;;1.90;0.70;;;;;;;8.24;82.21;96405.31;2084266;28;20224;-70
2023/12/25 10:30:20;;;;;;;1.30;0.65;;;;;;;8.17;82.08;96386.50;2080623;28;20288;-70
2023/12/25 10:31:27;;;;;;;4.93;0.70;;;;;;;8.33;81.86;96403.19;2082516;28;20483;-70
2023/12/25 10:32:29;;;;;;;2.80;0.73;;;;;;;8.44;81.62;96407.13;2082149;28;20773;-71
2023/12/25 10:33:32;;;;;;;1.20;0.60;;;;;;;8.57;81.39;96399.69;2080783;28;20632;-70
2023/12/25 10:34:34;;;;;;;1.58;0.60;;;;;;;8.69;81.01;96400.97;2084075;28;20209;-70
2023/12/25 10:35:36;;;;;;;1.80;0.60;;;;;;;8.71;80.66;96393.94;2081770;28;20230;-71
2023/12/25 10:37:01;;;;;;;2.30;1.05;;;;;;;8.99;79.72;96398.84;2082228;28;20201;-68
2023/12/25 10:38:05;;;;;;;1.75;0.75;;;;;;;9.03;79.57;96402.16;2082543;28;20250;-68
2023/12/25 10:39:07;;;;;;;3.90;0.73;;;;;;;8.90;79.78;96391.41;2080033;28;20232;-67
2023/12/25 10:40:26;;;;;;;6.50;0.70;;;;;;;8.88;79.99;96388.88;2083858;28;20227;-70
2023/12/25 10:41:33;;;;;;;2.47;0.65;;;;;;;8.73;80.27;96387.75;2081990;28;20228;-70
2023/12/25 10:42:37;;;;;;;1.38;0.70;;;;;;;8.67;80.86;96390.59;2081435;28;20228;-69
2023/12/25 10:43:48;;;;;;;1.50;0.65;;;;;;;8.60;80.90;96390.00;2080329;28;20217;-70
2023/12/25 10:44:50;;;;;;;5.65;0.80;;;;;;;8.59;81.34;96392.69;2081261;28;20553;-70
2023/12/25 10:45:55;;;;;;;2.03;0.82;;;;;;;8.62;81.31;96396.00;2078609;28;20206;-70
2023/12/25 10:47:00;;;;;;;1.83;0.70;;;;;;;8.61;81.22;96381.28;2080246;28;20201;-70
2023/12/25 10:48:03;;;;;;;1.10;0.60;;;;;;;8.62;81.04;96392.53;2085375;28;20205;-70
2023/12/25 10:49:06;;;;;;;2.28;0.70;;;;;;;8.50;81.74;96381.72;2084389;28;20252;-70
2023/12/25 10:50:09;;;;;;;1.50;0.60;;;;;;;8.52;82.00;96384.28;2080441;28;20259;-70
2023/12/25 10:51:11;;;;;;;1.10;0.60;;;;;;;8.42;82.00;96388.13;2081532;28;20204;-70
2023/12/25 10:52:13;;;;;;;3.05;0.68;;;;;;;8.47;82.70;96388.84;2081873;28;20653;-70
2023/12/25 10:53:18;;;;;;;1.30;0.60;;;;;;;8.39;82.39;96383.03;2076199;28;20208;-70
2023/12/25 10:54:22;;;;;;;1.38;0.63;;;;;;;8.37;82.37;96390.06;2077740;28;20229;-70
2023/12/25 10:55:31;;;;;;;1.83;0.80;;;;;;;8.21;82.74;96356.00;2084694;28;20193;-70
2023/12/25 10:56:35;;;;;;;3.88;1.00;;;;;;;8.36;82.65;96385.78;2083618;28;20280;-70
2023/12/25 10:57:38;;;;;;;1.10;0.50;;;;;;;8.36;82.60;96388.38;2079033;28;20257;-70
2023/12/25 10:58:44;;;;;;;3.47;0.60;;;;;;;8.27;82.71;96374.81;2083246;28;20729;-70
2023/12/25 10:59:47;;;;;;;1.90;0.80;;;;;;;8.26;82.83;96377.50;2081992;28;20197;-69
2023/12/25 11:01:01;;;;;;;1.35;0.70;;;;;;;8.33;83.14;96391.94;2084674;28;20512;-70
2023/12/25 11:02:16;;;;;;;19.55;9.93;;;;;;;8.31;82.94;96381.59;2082061;28;20193;-69
2023/12/25 11:03:24;;;;;;;4.55;2.25;;;;;;;8.37;82.82;96390.06;2084139;28;20232;-66
2023/12/25 11:04:37;;;;;;;9.18;4.10;;;;;;;8.30;82.89;96387.72;2080518;28;20244;-69
2023/12/25 11:05:39;;;;;;;1.98;0.80;;;;;;;8.33;83.11;96392.78;2086989;28;20197;-69
2023/12/25 11:06:43;;;;;;;2.22;0.80;;;;;;;8.35;83.05;96384.91;2080926;28;20605;-71
2023/12/25 11:07:45;;;;;;;1.60;0.80;;;;;;;8.27;83.30;96387.81;2079889;28;20205;-70
2023/12/25 11:08:47;;;;;;;1.38;0.70;;;;;;;8.22;83.38;96383.72;2079951;28;20722;-70
2023/12/25 11:09:49;;;;;;;1.67;0.80;;;;;;;8.20;83.59;96390.72;2085699;28;20280;-69
2023/12/25 11:10:51;;;;;;;1.80;0.60;;;;;;;8.15;83.39;96383.97;2085356;28;20236;-69
2023/12/25 11:11:55;;;;;;;1.60;0.68;;;;;;;8.13;83.54;96382.34;2078412;28;20220;-70
2023/12/25 11:19:32;;;;;;;1.40;0.65;;;;;;;8.01;84.03;96394.91;2083230;28;21122;-68
2023/12/25 11:20:33;;;;;;;1.23;0.70;;;;;;;8.01;84.22;96387.09;2081469;28;20763;-68
2023/12/25 11:21:35;;;;;;;1.73;0.68;;;;;;;7.99;83.98;96375.91;2081932;28;20232;-67
2023/12/25 11:22:39;;;;;;;1.45;0.70;;;;;;;8.03;83.89;96375.78;2082043;28;20202;-68
2023/12/25 11:23:41;;;;;;;2.25;0.80;;;;;;;7.99;83.92;96368.09;2076308;28;20556;-68
2023/12/25 11:24:42;;;;;;;1.73;0.60;;;;;;;8.05;83.72;96389.56;2070929;28;20281;-68
2023/12/25 11:25:44;;;;;;;1.30;0.73;;;;;;;8.02;84.02;96377.53;2066709;28;20194;-69
2023/12/25 11:26:46;;;;;;;1.45;0.77;;;;;;;8.01;83.86;96371.50;2067183;28;20237;-69
2023/12/25 11:27:55;;;;;;;1.30;0.65;;;;;;;8.08;83.75;96381.66;2070419;28;20200;-69
2023/12/25 11:29:00;;;;;;;1.40;0.70;;;;;;;8.07;83.18;96377.38;2066561;28;20293;-69
2023/12/25 11:30:02;;;;;;;1.00;0.50;;;;;;;8.11;83.43;96395.41;2066563;28;20248;-69
2023/12/25 11:31:05;;;;;;;1.10;0.60;;;;;;;8.14;83.45;96390.06;2074009;28;20261;-69
2023/12/25 11:32:10;;;;;;;1.80;0.65;;;;;;;8.10;83.06;96379.84;2074094;28;20208;-69
2023/12/25 11:33:12;;;;;;;1.38;0.70;;;;;;;8.06;83.33;96379.09;2074712;28;20225;-69
2023/12/25 11:34:26;;;;;;;1.27;0.68;;;;;;;8.08;83.54;96392.91;2055418;28;20240;-68
2023/12/25 11:35:29;;;;;;;1.63;0.63;;;;;;;8.11;83.53;96394.53;2073072;28;20707;-69
2023/12/25 11:36:31;;;;;;;2.95;0.60;;;;;;;8.06;83.36;96392.09;2076817;28;20189;-69
2023/12/25 11:37:34;;;;;;;1.95;0.80;;;;;;;8.06;83.18;96405.09;2083762;28;20201;-69
2023/12/25 11:38:40;;;;;;;1.10;0.60;;;;;;;8.03;83.36;96392.22;2077123;28;20553;-68
2023/12/25 11:43:19;;;;;;;1.63;0.80;;;;;;;7.96;84.24;96389.03;2114792;27;20548;-67
2023/12/25 11:44:33;;;;;;;2.08;0.90;;;;;;;8.04;83.71;96391.34;2091751;28;20221;-67
2023/12/25 11:45:46;;;;;;;1.20;0.70;;;;;;;8.05;83.95;96403.44;2099033;28;20203;-68
2023/12/25 11:46:48;;;;;;;1.95;0.80;;;;;;;8.00;83.91;96381.97;2092847;28;21360;-70
2023/12/25 11:47:49;;;;;;;1.30;0.63;;;;;;;7.99;84.29;96386.28;2090233;28;20205;-70
2023/12/25 11:53:36;;;;;;;1.40;0.70;;;;;;;7.87;84.26;96358.16;2096123;27;20572;-70
2023/12/25 11:54:38;;;;;;;3.88;0.80;;;;;;;7.94;84.43;96377.00;2087722;28;20204;-70
2023/12/25 11:55:42;;;;;;;1.75;0.68;;;;;;;8.01;84.19;96392.31;2086789;28;20197;-69
2023/12/25 11:56:44;;;;;;;1.77;0.70;;;;;;;7.97;84.69;96380.34;2081977;28;20193;-70
2023/12/25 11:57:46;;;;;;;1.20;0.70;;;;;;;8.06;84.39;96393.88;2082190;28;20561;-70
2023/12/25 12:14:32;;;;;;;1.30;0.60;;;;;;;7.86;85.65;96369.50;2098044;27;20504;-69
2023/12/25 12:15:35;;;;;;;1.10;0.60;;;;;;;7.91;85.94;96364.97;2094602;28;20193;-69
2023/12/25 12:16:41;;;;;;;1.10;0.60;;;;;;;7.95;85.55;96368.28;2089148;28;20269;-69
2023/12/25 12:17:45;;;;;;;1.45;0.60;;;;;;;7.74;85.32;96333.56;2083634;28;20204;-69
2023/12/25 12:18:47;;;;;;;1.10;0.50;;;;;;;7.81;85.35;96343.66;2083700;28;20229;-69
2023/12/25 12:19:49;;;;;;;2.80;1.25;;;;;;;7.94;85.62;96353.59;2074440;28;20205;-69
2023/12/25 12:20:51;;;;;;;3.10;0.80;;;;;;;7.93;85.56;96363.13;2065628;28;20259;-70
2023/12/25 12:33:45;;;;;;;1.10;0.60;;;;;;;7.81;87.39;96367.06;2091143;27;20553;-70
2023/12/25 12:34:47;;;;;;;1.30;1.05;;;;;;;7.83;87.12;96364.41;2097147;28;20196;-70
2023/12/25 12:35:50;;;;;;;1.33;0.70;;;;;;;7.93;86.86;96376.13;2097113;28;20199;-70
2023/12/25 12:36:59;;;;;;;2.00;0.70;;;;;;;7.99;87.15;96370.69;2091449;28;20286;-70
2023/12/25 12:38:03;;;;;;;2.25;0.73;;;;;;;7.91;87.03;96367.56;2090350;28;20208;-70
2023/12/25 12:39:05;;;;;;;1.20;0.60;;;;;;;7.97;87.09;96369.06;2084599;28;20592;-70
2023/12/25 12:40:07;;;;;;;1.38;0.65;;;;;;;8.00;87.12;96375.00;2083136;28;20193;-70
2023/12/25 12:52:11;;;;;;;1.17;0.60;;;;;;;7.90;87.94;96352.88;2087136;28;20588;-70
2023/12/25 12:53:12;;;;;;;1.83;0.60;;;;;;;7.92;87.71;96358.00;2086234;28;20197;-68
2023/12/25 12:54:14;;;;;;;1.38;0.50;;;;;;;7.95;87.87;96355.28;2079661;28;20221;-68
2023/12/25 12:55:16;;;;;;;3.78;1.10;;;;;;;7.81;87.42;96333.25;2077825;28;20595;-69
2023/12/25 12:56:18;;;;;;;1.65;0.80;;;;;;;8.00;87.71;96356.78;2076030;28;20619;-69
2023/12/25 13:07:26;;;;;;;2.25;1.00;;;;;;;7.79;87.82;96329.03;2106056;27;20876;-69
2023/12/25 13:08:28;;;;;;;2.97;1.27;;;;;;;7.87;87.84;96334.75;2106929;28;20199;-70
2023/12/25 13:09:30;;;;;;;1.67;0.73;;;;;;;7.91;87.60;96344.16;2102432;28;20249;-70
2023/12/25 13:10:32;;;;;;;1.25;0.70;;;;;;;7.93;87.46;96334.53;2097430;28;20252;-70
2023/12/25 13:21:01;;;;;;;3.83;0.93;;;;;;;7.97;87.36;96333.53;2098408;27;20531;-72
2023/12/25 13:22:08;;;;;;;1.95;0.85;;;;;;;7.88;87.36;96320.88;2094171;28;20559;-72
2023/12/25 13:23:10;;;;;;;2.30;0.60;;;;;;;7.95;87.64;96330.13;2094817;28;20188;-72
2023/12/25 13:24:13;;;;;;;2.03;0.80;;;;;;;8.06;87.20;96334.88;2093571;28;20231;-72
2023/12/25 13:34:34;;;;;;;1.73;0.77;;;;;;;7.96;88.02;96320.56;2100735;27;20575;-70
2023/12/25 13:35:36;;;;;;;2.63;1.00;;;;;;;8.14;88.07;96353.66;2098729;28;20226;-70
2023/12/25 13:36:37;;;;;;;2.40;0.90;;;;;;;8.10;87.70;96343.41;2103169;28;20683;-70
2023/12/25 13:37:39;;;;;;;5.90;1.60;;;;;;;8.21;87.73;96351.66;2096436;28;20219;-70
2023/12/25 13:47:34;;;;;;;4.05;0.80;;;;;;;8.26;88.34;96339.31;2091172;27;21077;-73
2023/12/25 13:48:46;;;;;;;1.48;0.88;;;;;;;8.22;88.40;96336.91;2084969;28;20534;-72
2023/12/25 13:49:48;;;;;;;1.70;0.70;;;;;;;8.26;88.27;96336.69;2074616;28;20201;-70
2023/12/25 13:50:50;;;;;;;3.42;1.13;;;;;;;8.28;88.22;96337.50;2075260;28;20209;-70
2023/12/25 14:00:40;;;;;;;1.58;0.70;;;;;;;8.34;88.51;96321.63;2099987;27;20554;-70
2023/12/25 14:01:43;;;;;;;1.65;0.70;;;;;;;8.41;88.45;96319.63;2097545;28;20215;-71
2023/12/25 14:02:44;;;;;;;1.55;0.70;;;;;;;8.45;88.18;96323.78;2095023;28;20196;-70
2023/12/25 14:03:46;;;;;;;1.20;0.70;;;;;;;8.48;87.92;96321.09;2093645;28;20234;-71
2023/12/25 14:14:04;;;;;;;1.90;0.60;;;;;;;8.62;87.59;96332.69;2084416;27;20553;-71
2023/12/25 14:15:06;;;;;;;1.20;0.60;;;;;;;8.61;87.65;96329.25;2078503;28;20249;-70
2023/12/25 14:16:08;;;;;;;1.60;0.80;;;;;;;8.61;87.63;96334.44;2078661;28;20197;-71
2023/12/25 14:25:37;;;;;;;2.60;0.88;;;;;;;8.71;87.95;96347.06;2099851;27;20560;-70
2023/12/25 14:26:39;;;;;;;1.55;0.80;;;;;;;8.73;88.10;96351.28;2099080;28;20638;-71
2023/12/25 14:27:41;;;;;;;1.48;0.60;;;;;;;8.75;88.10;96352.09;2099396;28;20194;-71
2023/12/25 14:37:01;;;;;;;1.73;0.80;;;;;;;8.76;88.28;96348.59;2100299;27;20553;-70
2023/12/25 14:38:03;;;;;;;1.40;0.68;;;;;;;8.81;88.14;96351.84;2098645;28;20195;-70
2023/12/25 14:39:05;;;;;;;2.45;0.80;;;;;;;8.78;87.73;96341.53;2093855;28;20224;-71
2023/12/25 14:40:07;;;;;;;1.70;0.70;;;;;;;9.21;87.05;96356.25;2088936;28;20195;-70
2023/12/25 14:41:09;;;;;;;2.00;0.80;;;;;;;9.56;85.44;96357.28;2103778;28;20218;-73
2023/12/25 14:42:11;;;;;;;3.13;1.20;;;;;;;10.05;83.81;96353.31;2095984;28;20195;-70
2023/12/25 14:43:12;;;;;;;2.25;0.90;;;;;;;10.32;82.25;96345.91;2088491;28;20200;-71
2023/12/25 14:44:15;;;;;;;1.92;0.90;;;;;;;10.60;81.34;96362.88;2085140;28;20703;-71
2023/12/25 14:45:17;;;;;;;3.20;1.45;;;;;;;10.57;80.64;96357.81;2082739;28;20203;-71
2023/12/25 14:46:20;;;;;;;1.85;0.95;;;;;;;10.42;80.93;96348.97;2081958;28;20224;-71
2023/12/25 14:47:24;;;;;;;2.55;1.50;;;;;;;10.40;81.10;96361.28;2082161;28;20212;-71
2023/12/25 14:48:26;;;;;;;2.47;1.27;;;;;;;10.38;80.72;96353.50;2080432;28;20259;-71
2023/12/25 14:49:28;;;;;;;2.97;1.02;;;;;;;10.28;81.55;96360.03;2081278;28;20221;-72
2023/12/25 14:50:29;;;;;;;1.40;0.70;;;;;;;10.05;82.19;96363.75;2080866;28;20668;-71
2023/12/25 14:51:32;;;;;;;2.50;1.10;;;;;;;9.75;83.03;96356.44;2081952;28;20250;-71
2023/12/25 14:52:34;;;;;;;2.95;1.00;;;;;;;9.69;83.78;96375.81;2081924;28;20225;-71
2023/12/25 14:53:36;;;;;;;2.40;0.90;;;;;;;9.60;83.85;96376.25;2081233;28;20240;-71
2023/12/25 14:54:38;;;;;;;1.63;0.70;;;;;;;9.52;84.42;96370.50;2082008;28;20255;-71
2023/12/25 15:06:03;;;;;;;2.20;1.10;;;;;;;9.23;86.17;96388.28;2115454;27;20547;-70
2023/12/25 15:07:05;;;;;;;5.63;0.68;;;;;;;9.17;85.84;96362.47;2115604;28;20189;-70
2023/12/25 15:08:06;;;;;;;1.60;0.68;;;;;;;9.33;85.47;96381.75;2115592;28;20717;-74
2023/12/25 15:09:08;;;;;;;2.00;0.70;;;;;;;9.28;85.44;96373.28;2112757;28;20206;-70
